Time;durP1;ratioP1;P1;durP2;ratioP2;P2;SDS_P1;SDS_P2;PMS_P1;PMS_P2;Temp;Humidity;BMP_temperature;BMP_pressure;BME280_temperature;BME280_humidity;BME280_pressure;Samples;Min_cycle;Max_cycle;Signal;HPM_P1;HPM_P2
2021/01/02 00:00:48;;;;;;;26.97;17.83;;;4.80;91.50;;;;;;5098105;28;20500;-79
2021/01/02 00:03:52;;;;;;;23.37;17.00;;;4.90;91.60;;;;;;5098107;28;20444;-79
2021/01/02 00:06:23;;;;;;;28.73;15.83;;;4.90;91.60;;;;;;5098376;28;20436;-79
2021/01/02 00:08:52;;;;;;;22.50;17.60;;;4.80;91.40;;;;;;5098307;28;20467;-79
2021/01/02 00:11:33;;;;;;;25.20;16.37;;;4.80;91.60;;;;;;5097360;28;20450;-79
2021/01/02 00:14:25;;;;;;;24.23;17.63;;;4.80;91.60;;;;;;5097832;28;20778;-79
2021/01/02 00:17:30;;;;;;;25.03;17.03;;;4.80;91.60;;;;;;5097775;28;20427;-79
2021/01/02 00:20:09;;;;;;;21.30;16.40;;;4.70;91.60;;;;;;5097852;28;20428;-79
2021/01/02 00:22:45;;;;;;;27.00;17.63;;;4.70;91.60;;;;;;5097322;28;20430;-79
2021/01/02 00:25:14;;;;;;;24.07;17.73;;;4.80;91.80;;;;;;5097061;28;20458;-79
2021/01/02 00:27:55;;;;;;;20.93;16.50;;;4.80;91.90;;;;;;5097737;28;20467;-79
2021/01/02 00:30:41;;;;;;;24.90;17.27;;;4.80;91.80;;;;;;5097556;28;20432;-79
2021/01/02 00:33:17;;;;;;;23.07;16.97;;;4.80;91.60;;;;;;5097336;28;20471;-79
2021/01/02 00:35:46;;;;;;;24.70;17.90;;;4.80;91.60;;;;;;5097364;28;20431;-79
2021/01/02 00:38:15;;;;;;;22.47;16.33;;;4.80;91.60;;;;;;5095907;28;20551;-79
2021/01/02 00:40:41;;;;;;;26.97;17.50;;;4.80;91.50;;;;;;5097398;28;20439;-79
2021/01/02 00:43:08;;;;;;;21.53;16.63;;;4.70;91.50;;;;;;5096836;28;20901;-79
2021/01/02 00:45:35;;;;;;;30.03;19.10;;;4.70;91.60;;;;;;5097201;28;20519;-79
2021/01/02 00:48:04;;;;;;;25.63;18.47;;;4.70;91.50;;;;;;5096667;28;20988;-79
2021/01/02 00:50:30;;;;;;;25.80;18.33;;;4.70;91.60;;;;;;5097229;28;20455;-79
2021/01/02 00:53:09;;;;;;;23.37;17.97;;;4.70;91.50;;;;;;5096917;28;20846;-79
2021/01/02 00:56:04;;;;;;;24.20;17.67;;;4.70;91.50;;;;;;5096726;28;20865;-78
2021/01/02 00:59:05;;;;;;;26.03;18.33;;;4.60;91.60;;;;;;5096801;28;20490;-79
2021/01/02 01:01:38;;;;;;;24.33;18.40;;;4.50;91.60;;;;;;5062895;28;20447;-79
2021/01/02 01:04:41;;;;;;;24.73;17.87;;;4.60;91.80;;;;;;5096404;28;20458;-79
2021/01/02 01:07:11;;;;;;;28.43;18.97;;;4.50;91.90;;;;;;5085745;28;20451;-79
2021/01/02 01:09:42;;;;;;;25.00;18.20;;;4.60;91.70;;;;;;5096579;28;20423;-78
2021/01/02 01:12:10;;;;;;;26.67;18.50;;;4.50;91.70;;;;;;5096351;28;20826;-78
2021/01/02 01:14:37;;;;;;;24.80;18.87;;;4.50;91.80;;;;;;5096202;28;20566;-78
2021/01/02 01:17:13;;;;;;;28.20;19.90;;;4.50;91.80;;;;;;5096199;28;20875;-78
2021/01/02 01:19:42;;;;;;;24.37;18.20;;;4.40;91.90;;;;;;5095909;28;20427;-78
2021/01/02 01:22:11;;;;;;;26.80;19.60;;;4.50;92.00;;;;;;5095938;28;20446;-78
2021/01/02 01:24:45;;;;;;;30.03;19.97;;;4.50;92.00;;;;;;5095887;28;20454;-78
2021/01/02 01:27:15;;;;;;;28.60;18.07;;;4.40;92.00;;;;;;5095784;28;20423;-78
2021/01/02 01:29:56;;;;;;;28.37;19.20;;;4.50;92.00;;;;;;5096155;28;20434;-78
2021/01/02 01:32:25;;;;;;;25.57;18.80;;;4.50;91.90;;;;;;5096004;28;20471;-79
2021/01/02 01:34:56;;;;;;;24.50;19.73;;;4.50;92.00;;;;;;5095763;28;20964;-79
2021/01/02 01:37:26;;;;;;;28.47;19.60;;;4.50;91.90;;;;;;5095938;28;20538;-79
2021/01/02 01:39:53;;;;;;;25.33;19.73;;;4.60;91.80;;;;;;5095981;28;20898;-78
2021/01/02 01:42:26;;;;;;;27.20;19.97;;;4.50;91.70;;;;;;5095965;28;20440;-79
2021/01/02 01:44:55;;;;;;;29.33;20.47;;;4.50;91.80;;;;;;5096554;28;20432;-79
2021/01/02 01:47:24;;;;;;;29.10;20.60;;;4.50;91.90;;;;;;5095839;28;20463;-79
2021/01/02 01:50:27;;;;;;;30.73;22.10;;;4.50;92.00;;;;;;5095815;28;20902;-79
2021/01/02 01:53:37;;;;;;;23.27;17.70;;;4.50;92.10;;;;;;5095975;28;20479;-79
2021/01/02 01:56:16;;;;;;;28.03;19.57;;;4.50;92.10;;;;;;5096233;28;20496;-79
2021/01/02 01:59:24;;;;;;;29.33;21.20;;;4.50;92.10;;;;;;5096028;28;20464;-80
2021/01/02 02:01:52;;;;;;;30.77;20.00;;;4.50;92.00;;;;;;5095622;28;20894;-79
2021/01/02 02:04:51;;;;;;;28.47;19.60;;;4.50;91.90;;;;;;5095664;28;21013;-79
2021/01/02 02:07:20;;;;;;;28.53;19.30;;;4.40;91.80;;;;;;5090758;28;20475;-80
2021/01/02 02:09:59;;;;;;;29.67;20.83;;;4.40;91.60;;;;;;5096100;28;20473;-78
2021/01/02 02:12:32;;;;;;;30.43;19.07;;;4.40;91.60;;;;;;5095803;28;20459;-78
2021/01/02 02:15:19;;;;;;;28.23;19.87;;;4.40;91.50;;;;;;5096018;28;20438;-79
2021/01/02 02:17:47;;;;;;;30.90;19.83;;;4.40;91.40;;;;;;5095365;28;20485;-79
2021/01/02 02:20:17;;;;;;;29.63;20.10;;;4.40;91.30;;;;;;5095600;28;20928;-79
2021/01/02 02:22:44;;;;;;;27.97;18.50;;;4.30;91.30;;;;;;5095754;28;20464;-79
2021/01/02 02:25:13;;;;;;;26.00;20.17;;;4.40;91.30;;;;;;5095414;28;20811;-79
2021/01/02 02:27:41;;;;;;;29.90;20.83;;;4.30;91.40;;;;;;5095176;28;20448;-78
2021/01/02 02:30:15;;;;;;;27.43;19.73;;;4.30;91.40;;;;;;5095617;28;20447;-79
2021/01/02 02:32:43;;;;;;;30.23;20.70;;;4.30;91.40;;;;;;5095720;28;20469;-79
2021/01/02 02:35:12;;;;;;;27.23;20.40;;;4.30;91.50;;;;;;5095244;28;20459;-78
2021/01/02 02:37:45;;;;;;;27.73;18.90;;;4.40;91.40;;;;;;5095322;28;20832;-78
2021/01/02 02:40:13;;;;;;;29.00;21.27;;;4.40;91.40;;;;;;5095455;28;20452;-79
2021/01/02 02:42:42;;;;;;;26.67;20.57;;;4.40;91.40;;;;;;5095217;28;20444;-79
2021/01/02 02:45:13;;;;;;;34.43;21.50;;;4.50;91.30;;;;;;5096616;28;20451;-80
2021/01/02 02:47:41;;;;;;;31.13;20.60;;;4.50;91.30;;;;;;5097797;28;21021;-78
2021/01/02 02:50:18;;;;;;;32.13;22.00;;;4.60;91.60;;;;;;5099533;28;20444;-79
2021/01/02 02:52:49;;;;;;;29.53;20.60;;;4.60;91.10;;;;;;5099396;28;20551;-78
2021/01/02 02:55:15;;;;;;;28.97;21.03;;;4.60;90.70;;;;;;5099287;28;20922;-79
2021/01/02 02:57:48;;;;;;;32.33;21.17;;;4.70;90.60;;;;;;5099700;28;20497;-79
2021/01/02 03:00:16;;;;;;;31.60;20.37;;;4.60;90.40;;;;;;5099515;28;20432;-78
2021/01/02 03:02:46;;;;;;;28.97;20.13;;;4.60;90.40;;;;;;5098971;28;20914;-78
2021/01/02 03:05:14;;;;;;;26.03;19.43;;;4.60;90.40;;;;;;5099262;28;20945;-79
2021/01/02 03:07:42;;;;;;;30.63;20.80;;;4.60;90.30;;;;;;5098854;28;20466;-79
2021/01/02 03:10:11;;;;;;;28.93;19.00;;;4.60;90.40;;;;;;5099251;28;20500;-79
2021/01/02 03:12:45;;;;;;;27.93;19.90;;;4.60;90.50;;;;;;5099286;28;20499;-79
2021/01/02 03:15:12;;;;;;;27.87;19.67;;;4.60;90.50;;;;;;5099120;28;20447;-78
2021/01/02 03:17:40;;;;;;;29.00;19.30;;;4.60;90.30;;;;;;5099074;28;20463;-78
2021/01/02 03:20:08;;;;;;;30.17;19.23;;;4.50;90.30;;;;;;5099103;28;20454;-79
2021/01/02 03:22:34;;;;;;;27.73;20.10;;;4.40;90.60;;;;;;5099181;28;20473;-79
2021/01/02 03:25:00;;;;;;;28.53;18.80;;;4.40;90.60;;;;;;5099198;28;20466;-79
2021/01/02 03:27:27;;;;;;;26.47;18.97;;;4.40;90.70;;;;;;5098790;28;20984;-78
2021/01/02 03:29:54;;;;;;;33.77;19.53;;;4.40;90.70;;;;;;5098871;28;20447;-78
2021/01/02 03:32:20;;;;;;;26.23;18.93;;;4.30;90.70;;;;;;5098547;28;21057;-79
2021/01/02 03:34:46;;;;;;;31.57;21.37;;;4.30;90.90;;;;;;5099214;28;20450;-79
2021/01/02 03:37:12;;;;;;;24.47;17.50;;;4.40;90.70;;;;;;5099003;28;20439;-78
2021/01/02 03:39:38;;;;;;;28.60;20.30;;;4.40;90.70;;;;;;5098554;28;20450;-79
2021/01/02 03:42:07;;;;;;;28.33;19.77;;;4.30;90.60;;;;;;5098792;28;20439;-79
2021/01/02 03:44:34;;;;;;;29.77;20.97;;;4.30;90.80;;;;;;5098660;28;20446;-79
2021/01/02 03:47:06;;;;;;;32.47;20.33;;;4.30;90.90;;;;;;5098521;28;20476;-79
2021/01/02 03:49:32;;;;;;;30.73;19.23;;;4.30;90.80;;;;;;5098739;28;20456;-78
2021/01/02 03:52:01;;;;;;;30.30;19.37;;;4.30;90.70;;;;;;5098769;28;20479;-79
2021/01/02 03:54:27;;;;;;;29.13;20.20;;;4.20;90.50;;;;;;5098621;28;20517;-79
2021/01/02 03:56:53;;;;;;;32.07;20.73;;;4.30;90.70;;;;;;5098862;28;20822;-79
2021/01/02 03:59:19;;;;;;;28.10;19.87;;;4.30;90.70;;;;;;5098367;28;20471;-79
2021/01/02 04:01:53;;;;;;;29.87;19.03;;;4.20;90.70;;;;;;5098214;28;20446;-79
2021/01/02 04:04:19;;;;;;;28.57;20.60;;;4.30;90.60;;;;;;5098055;28;20475;-78
2021/01/02 04:06:45;;;;;;;27.07;19.67;;;4.20;90.70;;;;;;5098064;28;20448;-79
2021/01/02 04:09:11;;;;;;;27.70;19.40;;;4.30;90.70;;;;;;5098066;28;20477;-80
2021/01/02 04:11:40;;;;;;;34.93;20.07;;;4.30;90.60;;;;;;5098628;28;20438;-79
2021/01/02 04:14:07;;;;;;;31.27;20.87;;;4.30;90.70;;;;;;5098182;28;20472;-78
2021/01/02 04:16:33;;;;;;;30.30;19.17;;;4.30;90.60;;;;;;5098800;28;20428;-78
2021/01/02 04:19:00;;;;;;;31.30;19.43;;;4.30;90.70;;;;;;5097869;28;20490;-79
2021/01/02 04:21:26;;;;;;;33.93;19.80;;;4.40;90.80;;;;;;5098102;28;20443;-79
2021/01/02 04:23:52;;;;;;;31.70;20.27;;;4.30;90.60;;;;;;5097693;28;20451;-78
2021/01/02 04:26:19;;;;;;;30.50;19.80;;;4.40;90.70;;;;;;5097631;28;20455;-79
2021/01/02 04:28:46;;;;;;;26.97;19.13;;;4.40;90.60;;;;;;5097731;28;20459;-79
2021/01/02 04:31:12;;;;;;;30.57;20.00;;;4.50;90.40;;;;;;5097724;28;20457;-79
2021/01/02 04:33:38;;;;;;;31.73;19.87;;;4.40;90.20;;;;;;5097894;28;20491;-79
2021/01/02 04:36:06;;;;;;;30.03;18.40;;;4.40;90.20;;;;;;5098257;28;20470;-80
2021/01/02 04:38:32;;;;;;;26.77;18.47;;;4.40;90.30;;;;;;5097544;28;20962;-79
2021/01/02 04:40:59;;;;;;;28.13;19.30;;;4.50;90.40;;;;;;5097759;28;20451;-80
2021/01/02 04:43:26;;;;;;;27.40;19.50;;;4.50;90.40;;;;;;5097511;28;20444;-79
2021/01/02 04:45:54;;;;;;;34.40;20.23;;;4.50;90.40;;;;;;5097502;28;20447;-79
2021/01/02 04:48:21;;;;;;;31.37;20.67;;;4.50;90.20;;;;;;5097265;28;20989;-79
2021/01/02 04:50:47;;;;;;;32.53;19.93;;;4.50;90.10;;;;;;5097637;28;20489;-79
2021/01/02 04:53:14;;;;;;;28.00;19.60;;;4.50;90.20;;;;;;5097674;28;20472;-78
2021/01/02 04:55:45;;;;;;;34.53;22.47;;;4.50;90.10;;;;;;5097142;28;20443;-80
2021/01/02 04:58:14;;;;;;;29.60;19.23;;;4.50;90.20;;;;;;5097530;28;20513;-79
2021/01/02 05:00:41;;;;;;;32.57;20.13;;;4.50;90.10;;;;;;5097461;28;20470;-79
2021/01/02 05:03:08;;;;;;;30.90;20.10;;;4.50;90.10;;;;;;5097073;28;20446;-79
2021/01/02 05:05:35;;;;;;;25.80;18.80;;;4.50;90.00;;;;;;5097309;28;20473;-79
2021/01/02 05:08:01;;;;;;;32.43;20.90;;;4.40;90.10;;;;;;5096659;28;20977;-79
2021/01/02 05:10:28;;;;;;;31.93;20.47;;;4.40;90.10;;;;;;5097112;28;20447;-79
2021/01/02 05:13:07;;;;;;;33.23;21.50;;;4.30;90.30;;;;;;5096955;28;20482;-79
2021/01/02 05:15:34;;;;;;;30.77;20.00;;;4.40;90.30;;;;;;5097199;28;20432;-80
2021/01/02 05:18:01;;;;;;;32.07;21.10;;;4.40;90.30;;;;;;5097082;28;20471;-78
2021/01/02 05:20:27;;;;;;;35.10;22.53;;;4.40;90.50;;;;;;5096881;28;20475;-79
2021/01/02 05:22:54;;;;;;;33.53;21.07;;;4.40;90.40;;;;;;5097091;28;20811;-80
2021/01/02 05:25:21;;;;;;;32.90;21.07;;;4.30;90.40;;;;;;5096912;28;20425;-79
2021/01/02 05:27:50;;;;;;;35.03;20.40;;;4.30;90.40;;;;;;5097857;28;20489;-79
2021/01/02 05:30:22;;;;;;;32.20;20.37;;;4.30;90.50;;;;;;5096832;28;20447;-79
2021/01/02 05:33:07;;;;;;;31.97;20.93;;;4.30;90.50;;;;;;5096921;28;20486;-79
2021/01/02 05:35:39;;;;;;;32.37;19.23;;;4.30;90.60;;;;;;5097074;28;20428;-79
2021/01/02 05:38:10;;;;;;;31.53;21.23;;;4.20;90.60;;;;;;5096946;28;20471;-79
2021/01/02 05:40:37;;;;;;;37.40;22.13;;;4.20;90.80;;;;;;5096826;28;20452;-79
2021/01/02 05:43:05;;;;;;;32.37;20.97;;;4.30;90.90;;;;;;5096796;28;20440;-79
2021/01/02 05:45:31;;;;;;;31.90;21.43;;;4.30;90.90;;;;;;5096689;28;20469;-80
2021/01/02 05:47:58;;;;;;;33.17;21.27;;;4.30;90.90;;;;;;5096586;28;20463;-79
2021/01/02 05:50:24;;;;;;;35.80;20.80;;;4.20;90.80;;;;;;5097283;28;20447;-78
2021/01/02 05:52:51;;;;;;;32.77;21.00;;;4.30;90.80;;;;;;5096791;28;20485;-80
2021/01/02 05:55:30;;;;;;;34.57;20.53;;;4.30;90.90;;;;;;5096867;28;20448;-79
2021/01/02 05:58:14;;;;;;;33.13;21.17;;;4.20;90.90;;;;;;5096330;28;20474;-79
2021/01/02 06:00:44;;;;;;;34.73;20.77;;;4.30;91.00;;;;;;5096777;28;20439;-78
2021/01/02 06:03:25;;;;;;;34.63;21.20;;;4.30;90.90;;;;;;5096011;28;20479;-79
2021/01/02 06:05:59;;;;;;;36.03;21.10;;;4.40;90.70;;;;;;5096606;28;20427;-79
2021/01/02 06:08:47;;;;;;;32.40;20.80;;;4.40;90.70;;;;;;5096464;28;20517;-79
2021/01/02 06:11:14;;;;;;;37.37;20.60;;;4.40;90.60;;;;;;5091215;28;20448;-79
2021/01/02 06:13:42;;;;;;;31.70;20.43;;;4.40;90.50;;;;;;5096464;28;20486;-79
2021/01/02 06:16:10;;;;;;;34.97;20.20;;;4.40;90.50;;;;;;5096330;28;20898;-80
2021/01/02 06:18:38;;;;;;;31.90;20.87;;;4.40;90.60;;;;;;5096566;28;20943;-80
2021/01/02 06:21:07;;;;;;;38.10;23.30;;;4.40;90.70;;;;;;5093974;28;20448;-78
2021/01/02 06:23:38;;;;;;;32.37;20.83;;;4.40;90.60;;;;;;5094384;28;20447;-78
2021/01/02 06:26:06;;;;;;;29.03;20.70;;;4.50;90.70;;;;;;5094108;28;20914;-78
2021/01/02 06:28:34;;;;;;;34.00;21.03;;;4.50;90.50;;;;;;5094230;28;20476;-79
2021/01/02 06:31:02;;;;;;;31.57;20.87;;;4.50;90.30;;;;;;5094301;28;20440;-79
2021/01/02 06:33:29;;;;;;;34.80;21.83;;;4.50;90.20;;;;;;5093908;28;20482;-79
2021/01/02 06:35:57;;;;;;;39.80;21.73;;;4.50;90.30;;;;;;5093879;28;20451;-79
2021/01/02 06:38:24;;;;;;;33.97;21.83;;;4.40;90.30;;;;;;5094124;28;20476;-79
2021/01/02 06:40:52;;;;;;;33.53;20.57;;;4.40;90.20;;;;;;5093730;28;21026;-79
2021/01/02 06:43:19;;;;;;;34.00;21.17;;;4.40;90.40;;;;;;5093967;28;20451;-79
2021/01/02 06:45:57;;;;;;;33.23;21.30;;;4.40;90.30;;;;;;5094446;28;20436;-79
2021/01/02 06:48:41;;;;;;;33.10;21.03;;;4.50;90.50;;;;;;5094113;28;20521;-79
2021/01/02 06:51:28;;;;;;;35.27;23.07;;;4.50;90.50;;;;;;5093904;28;20498;-79
2021/01/02 06:53:54;;;;;;;31.40;20.97;;;4.50;90.60;;;;;;5093976;28;20506;-79
2021/01/02 06:56:30;;;;;;;36.83;23.33;;;4.50;90.60;;;;;;5093999;28;20497;-79
2021/01/02 06:58:57;;;;;;;37.80;21.73;;;4.50;90.40;;;;;;5093916;28;20466;-79
2021/01/02 07:01:39;;;;;;;32.40;21.67;;;4.50;90.10;;;;;;5093884;28;20858;-79
2021/01/02 07:04:06;;;;;;;34.40;21.57;;;4.60;90.20;;;;;;5093676;28;20447;-79
2021/01/02 07:06:38;;;;;;;35.93;22.37;;;4.60;90.20;;;;;;5094026;28;20451;-79
2021/01/02 07:09:09;;;;;;;36.43;22.33;;;4.60;90.30;;;;;;5093953;28;20468;-79
2021/01/02 07:11:37;;;;;;;35.87;21.07;;;4.70;90.20;;;;;;5094691;28;20446;-79
2021/01/02 07:14:24;;;;;;;32.73;23.37;;;4.70;89.80;;;;;;5093887;28;21003;-79
2021/01/02 07:16:53;;;;;;;34.20;19.87;;;4.70;90.00;;;;;;5097598;28;20484;-80
2021/01/02 07:19:37;;;;;;;36.30;21.83;;;4.80;89.70;;;;;;5099812;28;20471;-80
2021/01/02 07:22:05;;;;;;;32.90;20.70;;;4.70;89.80;;;;;;5099819;28;20456;-80
2021/01/02 07:24:32;;;;;;;35.07;21.97;;;4.80;90.00;;;;;;5099422;28;20448;-79
2021/01/02 07:27:00;;;;;;;37.07;22.13;;;4.80;89.50;;;;;;5098299;28;20808;-80
2021/01/02 07:29:27;;;;;;;34.77;21.43;;;4.80;89.10;;;;;;5098157;28;20444;-80
2021/01/02 07:32:02;;;;;;;32.17;18.50;;;4.80;88.70;;;;;;5098412;28;20465;-79
2021/01/02 07:34:29;;;;;;;34.83;21.40;;;4.80;89.10;;;;;;5099466;28;20439;-79
2021/01/02 07:36:56;;;;;;;32.13;21.20;;;4.80;89.50;;;;;;5099975;28;20833;-79
2021/01/02 07:39:22;;;;;;;31.50;19.67;;;4.80;89.30;;;;;;5100544;28;20467;-79
2021/01/02 07:41:54;;;;;;;31.50;20.90;;;4.80;88.90;;;;;;5098943;28;20933;-78
2021/01/02 07:44:21;;;;;;;29.67;20.40;;;4.80;88.50;;;;;;5098790;28;20431;-79
2021/01/02 07:46:47;;;;;;;31.17;21.10;;;4.80;88.30;;;;;;5098568;28;20450;-79
2021/01/02 07:49:17;;;;;;;31.57;19.73;;;4.80;88.60;;;;;;5097981;28;20459;-80
2021/01/02 07:51:47;;;;;;;30.50;19.10;;;4.80;88.60;;;;;;5097547;28;20486;-79
2021/01/02 07:54:27;;;;;;;31.40;20.17;;;4.80;88.60;;;;;;5097771;28;20456;-79
2021/01/02 07:56:54;;;;;;;33.90;20.37;;;4.80;88.60;;;;;;5098777;28;20420;-81
2021/01/02 07:59:27;;;;;;;31.97;20.07;;;4.90;88.60;;;;;;5098857;28;20463;-80
2021/01/02 08:01:55;;;;;;;31.17;19.87;;;4.90;88.40;;;;;;5099078;28;20432;-79
2021/01/02 08:04:22;;;;;;;32.27;19.70;;;4.90;88.40;;;;;;5098946;28;20470;-80
2021/01/02 08:06:50;;;;;;;30.00;19.83;;;4.90;88.10;;;;;;5098942;28;20827;-80
2021/01/02 08:09:17;;;;;;;29.23;19.53;;;4.90;88.20;;;;;;5098870;28;20472;-79
2021/01/02 08:11:55;;;;;;;29.40;19.50;;;4.90;87.90;;;;;;5098915;28;20802;-80
2021/01/02 08:14:23;;;;;;;32.20;19.90;;;4.90;88.00;;;;;;5098709;28;20431;-79
2021/01/02 08:16:57;;;;;;;33.10;20.10;;;4.90;88.00;;;;;;5098085;28;20440;-79
2021/01/02 08:19:23;;;;;;;34.10;22.23;;;5.00;87.90;;;;;;5110982;28;20460;-80
2021/01/02 08:21:50;;;;;;;32.27;20.03;;;5.00;87.90;;;;;;5105027;28;20441;-79
2021/01/02 08:24:19;;;;;;;31.50;20.47;;;4.90;87.40;;;;;;5104267;28;20514;-80
2021/01/02 08:26:46;;;;;;;33.23;19.67;;;5.00;87.40;;;;;;5104030;28;20462;-81
2021/01/02 08:29:12;;;;;;;33.90;20.93;;;5.00;87.60;;;;;;5103112;28;20467;-80
2021/01/02 08:31:41;;;;;;;29.90;20.00;;;5.00;87.80;;;;;;5102889;28;20482;-80
2021/01/02 08:34:10;;;;;;;30.97;19.63;;;5.00;87.30;;;;;;5103059;28;20476;-81
2021/01/02 08:36:41;;;;;;;35.10;21.30;;;5.10;87.60;;;;;;5102438;28;20934;-80
2021/01/02 08:39:07;;;;;;;30.43;20.13;;;5.10;87.80;;;;;;5103084;28;20499;-80
2021/01/02 08:41:35;;;;;;;29.33;19.10;;;5.10;87.60;;;;;;5103252;28;20452;-80
2021/01/02 08:44:03;;;;;;;27.60;19.50;;;5.20;87.70;;;;;;5101299;28;20436;-79
2021/01/02 08:46:30;;;;;;;28.90;19.50;;;5.20;87.30;;;;;;5101381;28;20424;-80
2021/01/02 08:48:56;;;;;;;29.20;18.90;;;5.20;87.20;;;;;;5101287;28;20475;-80
2021/01/02 08:51:23;;;;;;;29.93;18.73;;;5.20;87.00;;;;;;5101354;28;20442;-80
2021/01/02 08:53:50;;;;;;;28.53;18.50;;;5.20;86.90;;;;;;5100886;28;20999;-80
2021/01/02 08:56:23;;;;;;;26.77;18.43;;;5.20;86.90;;;;;;5100199;28;20941;-81
2021/01/02 08:58:50;;;;;;;29.33;19.80;;;5.30;87.00;;;;;;5100173;28;20472;-82
2021/01/02 09:01:17;;;;;;;37.67;19.47;;;5.30;87.10;;;;;;5100837;28;20493;-80
2021/01/02 09:03:44;;;;;;;30.60;19.50;;;5.30;86.90;;;;;;5100570;28;20459;-80
2021/01/02 09:06:20;;;;;;;33.00;20.27;;;5.30;87.00;;;;;;5107876;28;20452;-78
2021/01/02 09:08:58;;;;;;;33.43;20.57;;;5.30;87.10;;;;;;5101943;28;20467;-77
2021/01/02 09:11:24;;;;;;;31.70;20.87;;;5.40;87.10;;;;;;5096314;28;20530;-77
2021/01/02 09:14:04;;;;;;;30.97;19.77;;;5.40;86.80;;;;;;5096934;28;20506;-78
2021/01/02 09:16:31;;;;;;;31.03;20.30;;;5.40;86.80;;;;;;5096309;28;20435;-77
2021/01/02 09:18:57;;;;;;;31.10;21.50;;;5.50;87.00;;;;;;5100301;28;20464;-79
2021/01/02 09:21:25;;;;;;;31.83;20.17;;;5.50;86.60;;;;;;5099489;28;20450;-79
2021/01/02 09:23:53;;;;;;;38.77;23.07;;;5.50;86.70;;;;;;5098784;28;20425;-78
2021/01/02 09:26:31;;;;;;;36.03;21.87;;;5.60;86.70;;;;;;5098446;28;20443;-78
2021/01/02 09:28:59;;;;;;;31.70;21.10;;;5.60;86.80;;;;;;5095477;28;20506;-77
2021/01/02 09:31:27;;;;;;;31.03;19.90;;;5.60;86.70;;;;;;5094905;28;20432;-76
2021/01/02 09:33:53;;;;;;;27.27;18.83;;;5.70;86.60;;;;;;5094940;28;20464;-76
2021/01/02 09:36:21;;;;;;;28.23;18.60;;;5.70;85.90;;;;;;5095131;28;20428;-77
2021/01/02 09:38:48;;;;;;;29.30;19.90;;;5.70;85.80;;;;;;5095043;28;20468;-76
2021/01/02 09:41:18;;;;;;;33.40;19.90;;;5.70;85.70;;;;;;5095124;28;20511;-76
2021/01/02 09:43:45;;;;;;;31.50;21.03;;;5.70;85.40;;;;;;5094697;28;20789;-77
2021/01/02 09:46:16;;;;;;;34.90;20.73;;;5.80;85.60;;;;;;5094964;28;20439;-76
2021/01/02 09:48:43;;;;;;;29.20;18.70;;;5.80;85.20;;;;;;5094715;28;20514;-77
2021/01/02 09:51:09;;;;;;;28.00;20.27;;;5.80;84.80;;;;;;5094453;28;20454;-76
2021/01/02 09:53:35;;;;;;;29.07;19.77;;;5.80;85.00;;;;;;5094037;28;20468;-75
2021/01/02 09:56:01;;;;;;;26.43;17.80;;;5.80;84.80;;;;;;5094109;28;20498;-76
2021/01/02 09:58:28;;;;;;;32.60;20.63;;;5.80;84.80;;;;;;5094197;28;20466;-75
2021/01/02 10:00:54;;;;;;;33.33;19.93;;;5.90;85.20;;;;;;5094271;28;20428;-75
2021/01/02 10:03:21;;;;;;;30.50;20.30;;;5.90;84.40;;;;;;5094041;28;20421;-76
2021/01/02 10:05:47;;;;;;;35.77;21.00;;;5.90;84.30;;;;;;5095352;28;20428;-76
2021/01/02 10:08:13;;;;;;;34.97;20.27;;;5.90;84.50;;;;;;5094401;28;20472;-76
2021/01/02 10:10:39;;;;;;;33.17;19.70;;;6.00;84.60;;;;;;5097742;28;20420;-76
2021/01/02 10:13:05;;;;;;;31.83;21.77;;;6.00;84.40;;;;;;5094257;28;20994;-76
2021/01/02 10:15:32;;;;;;;34.73;18.77;;;6.00;84.20;;;;;;5094549;28;20497;-76
2021/01/02 10:17:59;;;;;;;29.53;19.33;;;6.00;83.60;;;;;;5096219;28;20464;-76
2021/01/02 10:20:25;;;;;;;29.83;19.13;;;6.00;83.60;;;;;;5094780;28;20444;-76
2021/01/02 10:22:52;;;;;;;31.60;20.87;;;6.00;84.20;;;;;;5093975;28;20433;-76
2021/01/02 10:25:18;;;;;;;32.50;19.50;;;6.00;84.50;;;;;;5093908;28;20481;-76
2021/01/02 10:27:44;;;;;;;30.73;19.30;;;5.90;84.60;;;;;;5093695;28;20468;-76
2021/01/02 10:30:13;;;;;;;38.67;22.53;;;5.90;84.60;;;;;;5094073;28;20428;-76
2021/01/02 10:32:41;;;;;;;29.93;18.70;;;6.00;84.70;;;;;;5094184;28;21008;-76
2021/01/02 10:35:09;;;;;;;35.83;21.47;;;6.00;84.80;;;;;;5094714;28;20433;-76
2021/01/02 10:37:36;;;;;;;28.17;18.97;;;6.00;84.70;;;;;;5094060;28;20463;-76
2021/01/02 10:40:04;;;;;;;31.13;19.40;;;6.10;84.40;;;;;;5093758;28;20439;-76
2021/01/02 10:42:32;;;;;;;34.03;20.67;;;6.10;84.10;;;;;;5093581;28;20440;-76
2021/01/02 10:45:00;;;;;;;31.00;19.67;;;6.10;84.10;;;;;;5093680;28;20496;-76
2021/01/02 10:47:29;;;;;;;32.67;20.03;;;6.20;84.40;;;;;;5093592;28;20476;-77
2021/01/02 10:49:56;;;;;;;31.60;20.17;;;6.20;84.70;;;;;;5094909;28;20444;-77
2021/01/02 10:52:24;;;;;;;32.37;20.63;;;6.20;83.90;;;;;;5095646;28;20548;-78
2021/01/02 10:54:51;;;;;;;31.50;20.43;;;6.30;83.90;;;;;;5095933;28;20815;-77
2021/01/02 10:57:20;;;;;;;30.33;18.27;;;6.30;83.80;;;;;;5097190;28;20933;-78
2021/01/02 10:59:48;;;;;;;34.83;19.83;;;6.30;83.50;;;;;;5095833;28;20439;-79
2021/01/02 11:02:15;;;;;;;30.20;18.87;;;6.20;83.40;;;;;;5095603;28;20528;-77
2021/01/02 11:04:42;;;;;;;36.73;19.73;;;6.30;83.20;;;;;;5095462;28;20468;-77
2021/01/02 11:07:10;;;;;;;37.77;20.00;;;6.30;83.60;;;;;;5095681;28;20444;-77
2021/01/02 11:09:37;;;;;;;33.80;20.40;;;6.30;83.80;;;;;;5099415;28;20444;-77
2021/01/02 11:12:04;;;;;;;35.53;20.70;;;6.30;83.50;;;;;;5100107;28;20439;-78
2021/01/02 11:14:30;;;;;;;35.47;20.63;;;6.30;83.20;;;;;;5099333;28;20482;-77
2021/01/02 11:16:57;;;;;;;33.27;19.80;;;6.20;83.60;;;;;;5100446;28;20439;-77
2021/01/02 11:19:24;;;;;;;37.43;21.73;;;6.30;84.20;;;;;;5099803;28;20474;-78
2021/01/02 11:21:52;;;;;;;35.07;21.23;;;6.30;84.00;;;;;;5100384;28;20432;-78
2021/01/02 11:24:22;;;;;;;39.83;22.13;;;6.20;84.20;;;;;;5101226;28;20487;-78
2021/01/02 11:26:50;;;;;;;33.87;22.60;;;6.30;84.60;;;;;;5100342;28;20451;-78
2021/01/02 11:29:19;;;;;;;36.50;20.87;;;6.30;84.10;;;;;;5100619;28;20463;-78
2021/01/02 11:31:45;;;;;;;36.97;20.60;;;6.30;84.10;;;;;;5101622;28;20430;-78
2021/01/02 11:34:12;;;;;;;35.00;21.90;;;6.30;84.50;;;;;;5101018;28;20529;-78
2021/01/02 11:36:38;;;;;;;34.90;20.10;;;6.30;84.70;;;;;;5100272;28;20801;-78
2021/01/02 11:39:07;;;;;;;38.53;19.97;;;6.30;84.70;;;;;;5099097;28;20558;-77
2021/01/02 11:41:36;;;;;;;35.30;21.00;;;6.30;84.80;;;;;;5098917;28;20443;-78
2021/01/02 11:44:03;;;;;;;34.63;22.13;;;6.40;85.10;;;;;;5099431;28;20440;-77
2021/01/02 11:46:31;;;;;;;38.10;20.87;;;6.40;85.00;;;;;;5098625;28;20616;-77
2021/01/02 11:48:57;;;;;;;33.43;19.80;;;6.40;84.80;;;;;;5099514;28;20474;-77
2021/01/02 11:51:23;;;;;;;34.77;20.07;;;6.40;84.60;;;;;;5098900;28;20443;-77
2021/01/02 11:53:50;;;;;;;46.77;22.27;;;6.50;84.50;;;;;;5098998;28;20480;-78
2021/01/02 11:56:21;;;;;;;36.17;19.63;;;6.50;84.90;;;;;;5099406;28;20447;-77
2021/01/02 11:58:48;;;;;;;31.93;20.87;;;6.60;84.40;;;;;;5098892;28;20558;-77
2021/01/02 12:01:14;;;;;;;40.37;21.60;;;6.60;84.30;;;;;;5098526;28;20435;-78
2021/01/02 12:03:41;;;;;;;33.00;20.73;;;6.70;84.10;;;;;;5098515;28;20452;-78
2021/01/02 12:06:07;;;;;;;32.17;20.17;;;6.60;83.60;;;;;;5098589;28;20431;-77
2021/01/02 12:08:33;;;;;;;36.03;22.03;;;6.60;83.50;;;;;;5098319;28;20470;-77
2021/01/02 12:10:59;;;;;;;33.63;20.70;;;6.70;83.80;;;;;;5098675;28;20444;-77
2021/01/02 12:13:25;;;;;;;33.43;21.03;;;6.70;84.30;;;;;;5098565;28;20989;-78
2021/01/02 12:15:53;;;;;;;39.50;20.77;;;6.70;84.10;;;;;;5099307;28;20952;-78
2021/01/02 12:18:19;;;;;;;34.53;20.50;;;6.70;83.90;;;;;;5098815;28;20558;-78
2021/01/02 12:20:46;;;;;;;32.57;20.00;;;6.70;83.60;;;;;;5098276;28;20448;-78
2021/01/02 12:23:12;;;;;;;37.43;21.47;;;6.70;83.90;;;;;;5098946;28;20791;-77
2021/01/02 12:25:39;;;;;;;35.10;20.80;;;6.70;84.00;;;;;;5099225;28;20448;-77
2021/01/02 12:28:05;;;;;;;35.60;20.93;;;6.70;84.20;;;;;;5098994;28;20467;-77
2021/01/02 12:30:31;;;;;;;36.13;20.80;;;6.70;84.10;;;;;;5098299;28;20451;-78
2021/01/02 12:32:59;;;;;;;36.87;21.50;;;6.70;84.50;;;;;;5097877;28;20481;-78
2021/01/02 12:35:26;;;;;;;29.27;20.10;;;6.70;84.40;;;;;;5098730;28;20451;-77
2021/01/02 12:37:52;;;;;;;28.90;20.37;;;6.70;84.20;;;;;;5098247;28;20565;-78
2021/01/02 12:40:19;;;;;;;34.03;21.47;;;6.70;84.60;;;;;;5097723;28;20435;-77
2021/01/02 12:42:46;;;;;;;37.40;20.93;;;6.70;84.80;;;;;;5098963;28;20420;-78
2021/01/02 12:45:13;;;;;;;35.40;20.70;;;6.70;84.90;;;;;;5098451;28;20467;-78
2021/01/02 12:47:39;;;;;;;35.47;20.97;;;6.70;84.70;;;;;;5097319;28;20533;-78
2021/01/02 12:50:08;;;;;;;35.50;21.50;;;6.60;84.90;;;;;;5097399;28;20459;-77